createdAt,value
2023-01-31T00:01:28.583Z,7.13
2023-01-31T00:03:57.582Z,7.07
2023-01-31T00:06:33.152Z,7.10
2023-01-31T00:09:01.203Z,7.07
2023-01-31T00:11:29.599Z,7.28
2023-01-31T00:13:57.457Z,6.80
2023-01-31T00:16:24.153Z,7.72
2023-01-31T00:18:50.970Z,7.38
2023-01-31T00:21:24.532Z,6.88
2023-01-31T00:23:53.164Z,6.88
2023-01-31T00:26:29.793Z,6.80
2023-01-31T00:28:58.130Z,6.95
2023-01-31T00:31:26.873Z,6.78
2023-01-31T00:33:55.393Z,6.75
2023-01-31T00:36:25.023Z,6.75
2023-01-31T00:38:54.078Z,6.80
2023-01-31T00:41:22.298Z,6.30
2023-01-31T00:43:50.010Z,6.85
2023-01-31T00:46:17.370Z,6.80
2023-01-31T00:48:44.181Z,7.13
2023-01-31T00:51:10.906Z,7.18
2023-01-31T00:53:38.661Z,7.70
2023-01-31T00:56:08.410Z,7.05
2023-01-31T00:58:35.870Z,7.15
2023-01-31T01:01:12.763Z,6.70
2023-01-31T01:03:40.546Z,7.20
2023-01-31T01:06:08.714Z,6.45
2023-01-31T01:08:37.231Z,7.88
2023-01-31T01:11:11.834Z,7.72
2023-01-31T01:13:39.154Z,8.20
2023-01-31T01:16:19.416Z,9.02
2023-01-31T01:18:48.216Z,8.82
2023-01-31T01:21:20.563Z,9.23
2023-01-31T01:23:47.781Z,8.90
2023-01-31T01:26:16.599Z,9.45
2023-01-31T01:28:43.689Z,9.40
2023-01-31T01:31:12.238Z,9.48
2023-01-31T01:33:39.115Z,8.82
2023-01-31T01:36:08.636Z,9.25
2023-01-31T01:38:37.055Z,9.93
2023-01-31T01:41:04.995Z,9.07
2023-01-31T01:43:52.984Z,9.25
2023-01-31T01:46:28.256Z,9.30
2023-01-31T01:49:01.313Z,9.13
2023-01-31T01:51:32.215Z,9.13
2023-01-31T01:54:01.736Z,9.02
2023-01-31T01:56:32.689Z,9.00
2023-01-31T01:59:22.497Z,9.10
2023-01-31T02:01:50.596Z,9.00
2023-01-31T02:04:22.567Z,9.52
2023-01-31T02:06:49.972Z,9.93
2023-01-31T02:09:33.081Z,9.00
2023-01-31T02:11:59.975Z,9.00
2023-01-31T02:14:27.391Z,9.13
2023-01-31T02:16:54.195Z,9.32
2023-01-31T02:19:53.913Z,9.27
2023-01-31T02:22:38.312Z,8.80
2023-01-31T02:25:22.442Z,9.38
2023-01-31T02:28:16.990Z,8.82
2023-01-31T02:30:49.577Z,9.20
2023-01-31T02:33:54.146Z,8.13
2023-01-31T02:36:36.857Z,6.55
2023-01-31T02:39:46.501Z,8.32
2023-01-31T02:42:38.539Z,9.05
2023-01-31T02:45:27.995Z,9.02
2023-01-31T02:48:13.526Z,9.23
2023-01-31T02:50:59.001Z,9.38
2023-01-31T02:53:35.443Z,9.45
2023-01-31T02:56:20.399Z,9.50
2023-01-31T02:58:56.422Z,9.32
2023-01-31T03:01:29.074Z,8.93
2023-01-31T03:04:03.238Z,8.27
2023-01-31T03:06:36.625Z,9.13
2023-01-31T03:09:25.362Z,8.60
2023-01-31T03:12:10.564Z,8.98
2023-01-31T03:14:43.130Z,8.88
2023-01-31T03:17:32.908Z,8.40
2023-01-31T03:20:11.448Z,8.10
2023-01-31T03:22:42.189Z,7.97
2023-01-31T03:25:12.046Z,8.68
2023-01-31T03:27:43.681Z,8.10
2023-01-31T03:30:17.483Z,8.27
2023-01-31T03:32:51.581Z,7.85
2023-01-31T03:35:22.113Z,8.00
2023-01-31T03:38:15.393Z,8.60
2023-01-31T03:40:53.080Z,8.85
2023-01-31T03:43:42.264Z,8.73
2023-01-31T03:46:24.158Z,8.40
2023-01-31T03:48:54.835Z,8.45
2023-01-31T03:51:28.764Z,8.68
2023-01-31T03:54:01.494Z,8.32
2023-01-31T03:56:34.071Z,8.10
2023-01-31T03:59:07.147Z,8.73
2023-01-31T04:01:38.549Z,9.15
2023-01-31T04:04:14.978Z,8.85
2023-01-31T04:06:42.091Z,8.52
2023-01-31T04:09:08.844Z,9.23
2023-01-31T04:11:42.456Z,8.50
2023-01-31T04:14:10.241Z,8.77
2023-01-31T04:16:36.943Z,8.90
2023-01-31T04:19:03.710Z,8.85
2023-01-31T04:21:30.509Z,8.60
2023-01-31T04:23:57.465Z,8.60
2023-01-31T04:26:24.275Z,8.27
2023-01-31T04:28:51.721Z,7.72
2023-01-31T04:31:19.573Z,7.63
2023-01-31T04:33:46.353Z,7.88
2023-01-31T04:36:13.216Z,8.57
2023-01-31T04:38:40.172Z,8.02
2023-01-31T04:41:06.911Z,7.85
2023-01-31T04:43:33.654Z,8.40
2023-01-31T04:46:00.460Z,8.57
2023-01-31T04:48:29.022Z,8.18
2023-01-31T04:50:56.487Z,7.82
2023-01-31T04:53:23.213Z,8.35
2023-01-31T04:55:49.899Z,8.77
2023-01-31T04:58:16.739Z,8.50
2023-01-31T05:00:45.338Z,10.77
2023-01-31T05:03:12.939Z,10.48
2023-01-31T05:05:40.089Z,13.15
2023-01-31T05:08:07.005Z,18.50
2023-01-31T05:10:36.375Z,27.23
2023-01-31T05:13:03.360Z,20.92
2023-01-31T05:15:30.249Z,13.63
2023-01-31T05:18:02.898Z,11.18
2023-01-31T05:20:36.595Z,9.65
2023-01-31T05:23:03.872Z,7.55
2023-01-31T05:25:31.649Z,10.02
2023-01-31T05:27:58.734Z,10.25
2023-01-31T05:30:25.617Z,11.07
2023-01-31T05:32:52.583Z,8.98
2023-01-31T05:35:20.253Z,8.32
2023-01-31T05:37:47.113Z,9.35
2023-01-31T05:40:16.801Z,9.90
2023-01-31T05:42:43.838Z,9.65
2023-01-31T05:45:11.639Z,9.90
2023-01-31T05:47:38.532Z,11.35
2023-01-31T05:50:05.814Z,10.98
2023-01-31T05:52:32.529Z,10.27
2023-01-31T05:54:59.309Z,19.98
2023-01-31T05:57:26.424Z,20.05
2023-01-31T05:59:53.173Z,13.95
2023-01-31T06:02:19.869Z,11.68
2023-01-31T06:04:47.296Z,10.73
2023-01-31T06:07:13.991Z,10.98
2023-01-31T06:09:42.296Z,11.07
2023-01-31T06:12:17.016Z,16.15
2023-01-31T06:14:44.846Z,10.57
2023-01-31T06:17:11.824Z,13.15
2023-01-31T06:19:38.609Z,10.32
2023-01-31T06:22:05.874Z,10.73
2023-01-31T06:24:32.999Z,9.05
2023-01-31T06:26:59.832Z,10.40
2023-01-31T06:29:26.555Z,11.73
2023-01-31T06:31:53.771Z,12.23
2023-01-31T06:34:20.858Z,9.35
2023-01-31T06:36:47.609Z,11.05
2023-01-31T06:39:14.877Z,10.90
2023-01-31T06:41:41.753Z,13.25
2023-01-31T06:44:08.540Z,9.85
2023-01-31T06:46:35.683Z,9.45
2023-01-31T06:49:02.553Z,9.10
2023-01-31T06:51:29.350Z,8.95
2023-01-31T06:53:56.679Z,9.00
2023-01-31T06:56:23.891Z,8.57
2023-01-31T06:58:50.622Z,8.48
2023-01-31T07:01:17.486Z,8.85
2023-01-31T07:03:44.691Z,8.52
2023-01-31T07:06:11.986Z,9.15
2023-01-31T07:08:38.726Z,7.88
2023-01-31T07:11:05.881Z,8.60
2023-01-31T07:13:33.038Z,8.35
2023-01-31T07:15:59.914Z,8.23
2023-01-31T07:18:26.646Z,8.65
2023-01-31T07:20:53.626Z,8.60
2023-01-31T07:23:20.572Z,8.57
2023-01-31T07:25:47.354Z,8.52
2023-01-31T07:28:14.044Z,8.30
2023-01-31T07:30:43.793Z,9.50
2023-01-31T07:33:11.706Z,9.25
2023-01-31T07:35:38.482Z,15.60
2023-01-31T07:38:05.526Z,16.75
2023-01-31T07:40:32.450Z,10.68
2023-01-31T07:43:00.260Z,12.95
2023-01-31T07:45:27.553Z,12.07
2023-01-31T07:47:58.472Z,10.20
2023-01-31T07:50:27.239Z,9.43
2023-01-31T07:52:54.039Z,8.95
2023-01-31T07:55:21.138Z,9.90
2023-01-31T07:57:48.499Z,9.48
2023-01-31T08:00:34.228Z,9.50
2023-01-31T08:03:19.633Z,8.45
2023-01-31T08:05:47.694Z,8.95
2023-01-31T08:08:14.719Z,8.43
2023-01-31T08:10:41.539Z,8.90
2023-01-31T08:13:08.340Z,9.40
2023-01-31T08:15:35.036Z,8.85
2023-01-31T08:18:03.372Z,8.70
2023-01-31T08:20:32.075Z,9.23
2023-01-31T08:22:59.968Z,8.82
2023-01-31T08:25:29.280Z,9.13
2023-01-31T08:28:00.239Z,8.23
2023-01-31T08:30:28.458Z,8.60
2023-01-31T08:32:55.817Z,9.82
2023-01-31T08:35:22.907Z,9.32
2023-01-31T08:37:49.661Z,7.60
2023-01-31T08:40:16.829Z,7.47
2023-01-31T08:42:43.553Z,7.32
2023-01-31T08:45:10.788Z,7.20
2023-01-31T08:47:38.811Z,6.38
2023-01-31T08:50:10.895Z,6.75
2023-01-31T08:52:42.616Z,6.35
2023-01-31T08:55:13.822Z,7.00
2023-01-31T08:57:52.629Z,6.88
2023-01-31T09:00:24.702Z,5.20
2023-01-31T09:02:53.200Z,5.97
2023-01-31T09:05:20.459Z,5.93
2023-01-31T09:07:47.542Z,5.28
2023-01-31T09:10:14.362Z,5.00
2023-01-31T09:12:41.102Z,4.40
2023-01-31T09:15:08.510Z,4.25
2023-01-31T09:17:35.382Z,4.63
2023-01-31T09:20:06.590Z,3.92
2023-01-31T09:22:34.643Z,3.92
2023-01-31T09:25:02.352Z,3.58
2023-01-31T09:27:29.790Z,3.83
2023-01-31T09:29:56.653Z,3.70
2023-01-31T09:32:23.457Z,3.67
2023-01-31T09:34:50.285Z,3.50
2023-01-31T09:37:17.285Z,4.18
2023-01-31T09:39:44.074Z,3.70
2023-01-31T09:42:22.183Z,4.13
2023-01-31T09:45:02.902Z,2.97
2023-01-31T09:47:36.277Z,3.28
2023-01-31T09:50:05.990Z,3.40
2023-01-31T09:52:33.273Z,3.00
2023-01-31T09:55:00.351Z,3.22
2023-01-31T09:57:30.718Z,3.83
2023-01-31T10:00:25.901Z,3.22
2023-01-31T10:05:30.565Z,3.63
2023-01-31T10:08:36.105Z,5.90
2023-01-31T10:11:11.564Z,3.55
2023-01-31T10:13:57.846Z,4.07
2023-01-31T10:16:36.345Z,3.67
2023-01-31T10:19:08.442Z,3.90
2023-01-31T10:21:42.417Z,4.90
2023-01-31T10:24:18.860Z,4.38
2023-01-31T10:26:48.373Z,5.70
2023-01-31T10:29:29.501Z,8.45
2023-01-31T10:32:01.922Z,4.95
2023-01-31T10:34:44.475Z,4.20
2023-01-31T10:37:30.209Z,4.88
2023-01-31T10:40:15.244Z,4.38
2023-01-31T10:42:46.035Z,4.95
2023-01-31T10:45:18.505Z,4.65
2023-01-31T10:48:01.230Z,4.28
2023-01-31T10:51:09.969Z,4.55
2023-01-31T10:54:06.081Z,4.70
2023-01-31T10:56:35.800Z,5.00
2023-01-31T10:59:17.245Z,6.70
2023-01-31T11:01:44.061Z,5.65
2023-01-31T11:04:43.228Z,5.22
2023-01-31T11:07:10.831Z,5.28
2023-01-31T11:09:41.005Z,5.10
2023-01-31T11:12:08.935Z,5.15
2023-01-31T11:14:36.816Z,5.63
2023-01-31T11:17:06.702Z,5.10
2023-01-31T11:19:41.067Z,5.60
2023-01-31T11:24:38.763Z,5.53
2023-01-31T11:27:07.325Z,5.85
2023-01-31T11:29:38.137Z,5.80
2023-01-31T11:32:12.867Z,5.90
2023-01-31T11:34:40.979Z,5.70
2023-01-31T11:37:18.704Z,6.47
2023-01-31T11:39:56.641Z,5.80
2023-01-31T11:42:23.761Z,5.85
2023-01-31T11:45:18.730Z,5.25
2023-01-31T11:47:58.182Z,7.60
2023-01-31T11:50:40.847Z,7.38
2023-01-31T11:53:18.858Z,13.35
2023-01-31T11:55:47.786Z,9.35
2023-01-31T11:58:26.122Z,5.75
2023-01-31T12:00:59.173Z,5.88
2023-01-31T12:03:27.762Z,5.60
2023-01-31T12:06:29.072Z,6.15
2023-01-31T12:08:58.036Z,5.40
2023-01-31T12:11:33.433Z,5.50
2023-01-31T12:14:16.516Z,5.53
2023-01-31T12:16:44.898Z,5.15
2023-01-31T12:19:11.652Z,5.30
2023-01-31T12:21:56.481Z,5.95
2023-01-31T12:27:21.622Z,5.90
2023-01-31T12:30:03.449Z,5.07
2023-01-31T12:33:15.418Z,8.07
2023-01-31T12:36:07.644Z,5.82
2023-01-31T12:38:46.305Z,5.90
2023-01-31T12:41:18.882Z,5.32
2023-01-31T12:44:16.778Z,4.65
2023-01-31T12:47:24.085Z,5.30
2023-01-31T12:49:53.605Z,5.45
2023-01-31T12:52:46.749Z,5.10
2023-01-31T12:55:25.605Z,4.88
2023-01-31T12:58:15.750Z,5.40
2023-01-31T13:00:48.802Z,5.10
2023-01-31T13:03:52.298Z,4.93
2023-01-31T13:06:26.369Z,5.60
2023-01-31T13:09:08.087Z,5.40
2023-01-31T13:11:41.095Z,5.03
2023-01-31T13:14:23.079Z,5.47
2023-01-31T13:16:55.049Z,7.07
2023-01-31T13:19:45.229Z,6.30
2023-01-31T13:22:22.086Z,6.03
2023-01-31T13:24:58.251Z,6.18
2023-01-31T13:27:40.930Z,6.30
2023-01-31T13:30:21.656Z,6.60
2023-01-31T13:32:55.243Z,4.88
2023-01-31T13:35:41.933Z,6.67
2023-01-31T13:38:15.726Z,5.80
2023-01-31T13:40:55.051Z,6.10
2023-01-31T13:43:22.025Z,5.80
2023-01-31T13:46:04.395Z,5.45
2023-01-31T13:48:56.220Z,9.23
2023-01-31T13:51:25.133Z,8.85
2023-01-31T13:54:04.309Z,7.85
2023-01-31T13:56:35.290Z,5.90
2023-01-31T13:59:02.812Z,5.20
2023-01-31T14:01:34.594Z,5.22
2023-01-31T14:04:14.734Z,5.05
2023-01-31T14:06:56.445Z,5.22
2023-01-31T14:09:33.664Z,7.22
2023-01-31T14:12:07.282Z,6.20
2023-01-31T14:14:41.622Z,5.13
2023-01-31T14:20:05.639Z,5.35
2023-01-31T14:22:39.672Z,5.07
2023-01-31T14:25:16.000Z,5.32
2023-01-31T14:27:56.522Z,5.10
2023-01-31T14:30:37.440Z,4.50
2023-01-31T14:33:06.311Z,4.90
2023-01-31T14:35:57.303Z,4.63
2023-01-31T14:38:24.035Z,5.80
2023-01-31T14:41:19.543Z,5.10
2023-01-31T14:44:21.208Z,5.45
2023-01-31T14:47:09.574Z,5.38
2023-01-31T14:50:10.333Z,5.88
2023-01-31T14:52:55.178Z,5.13
2023-01-31T14:55:36.986Z,5.72
2023-01-31T14:58:06.455Z,5.55
2023-01-31T15:00:36.736Z,5.32
2023-01-31T15:03:20.595Z,5.68
2023-01-31T15:06:12.019Z,6.20
2023-01-31T15:08:42.119Z,5.70
2023-01-31T15:11:14.115Z,5.45
2023-01-31T15:13:53.935Z,5.50
2023-01-31T15:16:31.571Z,6.82
2023-01-31T15:19:09.453Z,6.05
2023-01-31T15:21:55.711Z,9.27
2023-01-31T15:24:32.335Z,6.30
2023-01-31T15:27:01.045Z,6.10
2023-01-31T15:29:52.825Z,7.72
2023-01-31T15:32:29.793Z,6.00
2023-01-31T15:35:04.341Z,7.22
2023-01-31T15:37:35.217Z,5.65
2023-01-31T15:40:24.043Z,5.53
2023-01-31T15:42:50.803Z,5.82
2023-01-31T15:45:25.251Z,5.97
2023-01-31T15:50:28.568Z,5.55
2023-01-31T15:52:57.187Z,5.00
2023-01-31T15:55:24.357Z,4.70
2023-01-31T15:57:58.311Z,4.28
2023-01-31T16:00:29.874Z,4.63
2023-01-31T16:03:02.988Z,4.70
2023-01-31T16:05:40.005Z,4.38
2023-01-31T16:08:36.185Z,3.88
2023-01-31T16:11:05.990Z,3.97
2023-01-31T16:13:38.790Z,4.38
2023-01-31T16:16:07.301Z,4.60
2023-01-31T16:18:35.764Z,3.95
2023-01-31T16:21:15.966Z,3.90
2023-01-31T16:23:43.253Z,4.20
2023-01-31T16:26:23.079Z,3.92
2023-01-31T16:28:57.901Z,4.30
2023-01-31T16:31:27.873Z,4.53
2023-01-31T16:34:00.223Z,4.90
2023-01-31T16:36:52.317Z,5.07
2023-01-31T16:39:37.401Z,4.47
2023-01-31T16:42:23.737Z,5.10
2023-01-31T16:44:51.324Z,5.45
2023-01-31T16:47:33.494Z,5.05
2023-01-31T16:50:32.747Z,5.35
2023-01-31T16:53:25.953Z,5.40
2023-01-31T16:56:14.399Z,6.20
2023-01-31T16:58:55.658Z,5.80
2023-01-31T17:01:31.932Z,6.15
2023-01-31T17:04:19.332Z,6.75
2023-01-31T17:06:51.202Z,5.18
2023-01-31T17:09:22.160Z,5.28
2023-01-31T17:11:48.891Z,5.57
2023-01-31T17:14:15.660Z,6.60
2023-01-31T17:16:42.351Z,7.38
2023-01-31T17:19:09.103Z,7.20
2023-01-31T17:21:40.841Z,6.40
2023-01-31T17:24:16.210Z,8.60
2023-01-31T17:26:43.369Z,5.30
2023-01-31T17:29:10.309Z,6.90
2023-01-31T17:31:37.474Z,5.65
2023-01-31T17:34:05.716Z,6.00
2023-01-31T17:36:32.409Z,6.05
2023-01-31T17:38:59.128Z,5.90
2023-01-31T17:41:25.814Z,5.65
2023-01-31T17:43:52.870Z,5.93
2023-01-31T17:46:19.866Z,5.82
2023-01-31T17:48:46.725Z,6.22
2023-01-31T17:51:14.422Z,5.90
2023-01-31T17:53:49.398Z,6.03
2023-01-31T17:56:18.044Z,5.93
2023-01-31T17:58:44.955Z,7.50
2023-01-31T18:01:13.937Z,6.32
2023-01-31T18:03:41.635Z,6.03
2023-01-31T18:06:09.384Z,5.90
2023-01-31T18:08:36.779Z,5.70
2023-01-31T18:11:08.893Z,6.72
2023-01-31T18:13:37.930Z,6.13
2023-01-31T18:16:18.126Z,5.35
2023-01-31T18:18:44.914Z,5.90
2023-01-31T18:21:13.250Z,6.10
2023-01-31T18:23:40.108Z,7.47
2023-01-31T18:26:08.812Z,6.80
2023-01-31T18:28:36.077Z,5.53
2023-01-31T18:31:10.584Z,6.60
2023-01-31T18:33:38.100Z,5.82
2023-01-31T18:36:06.224Z,6.57
2023-01-31T18:38:33.131Z,6.03
2023-01-31T18:41:02.721Z,5.72
2023-01-31T18:43:29.758Z,7.70
2023-01-31T18:45:56.534Z,8.05
2023-01-31T18:48:23.232Z,7.45
2023-01-31T18:50:49.917Z,7.00
2023-01-31T18:53:16.610Z,6.45
2023-01-31T18:55:43.284Z,6.25
2023-01-31T18:58:10.005Z,6.25
2023-01-31T19:00:36.742Z,6.85
2023-01-31T19:03:03.765Z,6.90
2023-01-31T19:05:30.602Z,8.50
2023-01-31T19:07:57.574Z,6.72
2023-01-31T19:10:24.278Z,6.93
2023-01-31T19:12:50.991Z,7.68
2023-01-31T19:15:17.810Z,8.68
2023-01-31T19:17:44.472Z,7.03
2023-01-31T19:20:12.045Z,6.40
2023-01-31T19:22:38.799Z,7.60
2023-01-31T19:25:09.058Z,6.63
2023-01-31T19:27:35.822Z,6.95
2023-01-31T19:30:02.666Z,5.88
2023-01-31T19:32:31.014Z,6.60
2023-01-31T19:34:57.704Z,6.82
2023-01-31T19:37:24.428Z,7.07
2023-01-31T19:39:51.379Z,6.55
2023-01-31T19:42:18.296Z,6.40
2023-01-31T19:44:45.023Z,6.40
2023-01-31T19:47:11.806Z,10.93
2023-01-31T19:49:38.532Z,12.32
2023-01-31T19:52:05.321Z,6.30
2023-01-31T19:54:32.064Z,6.07
2023-01-31T19:56:58.789Z,5.75
2023-01-31T19:59:25.536Z,5.68
2023-01-31T20:01:52.301Z,5.68
2023-01-31T20:04:19.295Z,5.60
2023-01-31T20:06:46.122Z,5.45
2023-01-31T20:09:19.887Z,5.32
2023-01-31T20:11:46.839Z,5.43
2023-01-31T20:14:13.743Z,6.00
2023-01-31T20:16:40.532Z,5.90
2023-01-31T20:19:07.666Z,6.15
2023-01-31T20:21:34.611Z,6.82
2023-01-31T20:24:01.355Z,6.45
2023-01-31T20:26:29.724Z,7.00
2023-01-31T20:28:56.724Z,6.03
2023-01-31T20:31:23.565Z,6.80
2023-01-31T20:33:54.948Z,7.18
2023-01-31T20:36:25.439Z,6.65
2023-01-31T20:38:52.643Z,6.32
2023-01-31T20:41:19.497Z,7.45
2023-01-31T20:43:46.249Z,6.97
2023-01-31T20:46:14.295Z,7.30
2023-01-31T20:48:42.997Z,8.77
2023-01-31T20:51:09.995Z,8.30
2023-01-31T20:53:37.212Z,8.23
2023-01-31T20:56:12.605Z,7.45
2023-01-31T20:58:40.997Z,7.32
2023-01-31T21:01:09.161Z,7.35
2023-01-31T21:03:36.898Z,6.40
2023-01-31T21:06:05.305Z,9.15
2023-01-31T21:08:32.412Z,8.73
2023-01-31T21:10:59.704Z,5.72
2023-01-31T21:13:31.487Z,6.55
2023-01-31T21:16:00.230Z,5.60
2023-01-31T21:18:28.618Z,6.15
2023-01-31T21:20:55.486Z,6.20
2023-01-31T21:23:22.657Z,6.50
2023-01-31T21:25:49.447Z,5.88
2023-01-31T21:28:16.223Z,5.68
2023-01-31T21:30:43.305Z,6.20
2023-01-31T21:33:10.090Z,5.88
2023-01-31T21:35:36.805Z,6.80
2023-01-31T21:38:03.566Z,6.03
2023-01-31T21:40:30.281Z,5.90
2023-01-31T21:42:57.008Z,5.90
2023-01-31T21:45:39.657Z,6.28
2023-01-31T21:48:27.697Z,6.20
2023-01-31T21:50:55.118Z,5.88
2023-01-31T21:53:22.066Z,6.10
2023-01-31T21:55:48.815Z,6.40
2023-01-31T21:58:15.755Z,6.40
2023-01-31T22:00:44.022Z,5.80
2023-01-31T22:03:11.226Z,5.95
2023-01-31T22:05:37.995Z,6.38
2023-01-31T22:08:04.947Z,6.03
2023-01-31T22:10:31.849Z,6.40
2023-01-31T22:12:58.535Z,6.25
2023-01-31T22:15:25.453Z,5.88
2023-01-31T22:17:52.749Z,6.60
2023-01-31T22:20:19.821Z,6.43
2023-01-31T22:22:48.536Z,6.30
2023-01-31T22:25:15.447Z,6.35
2023-01-31T22:27:42.228Z,6.10
2023-01-31T22:30:16.886Z,6.45
2023-01-31T22:32:43.937Z,6.90
2023-01-31T22:35:10.754Z,5.95
2023-01-31T22:37:37.449Z,6.00
2023-01-31T22:40:04.489Z,6.40
2023-01-31T22:42:31.208Z,6.22
2023-01-31T22:44:57.930Z,6.20
2023-01-31T22:47:24.984Z,6.32
2023-01-31T22:49:51.744Z,6.05
2023-01-31T22:52:18.541Z,5.75
2023-01-31T22:54:45.342Z,6.45
2023-01-31T22:57:12.833Z,6.85
2023-01-31T22:59:39.519Z,5.93
2023-01-31T23:02:06.513Z,6.43
2023-01-31T23:04:33.382Z,6.30
2023-01-31T23:07:00.127Z,6.47
2023-01-31T23:09:26.889Z,6.20
2023-01-31T23:11:53.559Z,6.47
2023-01-31T23:14:20.413Z,5.75
2023-01-31T23:17:05.647Z,6.28
2023-01-31T23:19:32.316Z,5.70
2023-01-31T23:21:58.992Z,6.50
2023-01-31T23:24:25.678Z,5.80
2023-01-31T23:26:54.413Z,6.07
2023-01-31T23:29:21.271Z,7.60
2023-01-31T23:31:48.117Z,6.32
2023-01-31T23:34:14.836Z,5.93
2023-01-31T23:36:41.584Z,6.03
2023-01-31T23:39:09.868Z,5.88
2023-01-31T23:41:36.605Z,6.55
2023-01-31T23:44:03.625Z,6.47
2023-01-31T23:46:30.470Z,6.30
2023-01-31T23:48:57.318Z,6.30
2023-01-31T23:51:24.050Z,6.45
2023-01-31T23:53:50.856Z,6.10
2023-01-31T23:56:17.541Z,6.20
2023-01-31T23:58:44.323Z,7.03
